Time;durP1;ratioP1;P1;durP2;ratioP2;P2;SDS_P1;SDS_P2;PMS_P1;PMS_P2;Temp;Humidity;BMP_temperature;BMP_pressure;BME280_temperature;BME280_humidity;BME280_pressure;Samples;Min_cycle;Max_cycle;Signal;HPM_P1;HPM_P2
2022/02/18 00:00:45;;;;;;;7.53;2.77;;;;;;;;;;5011828;28;20922;-44
2022/02/18 00:03:11;;;;;;;11.10;4.10;;;;;;;;;;5012168;28;20797;-44
2022/02/18 00:05:37;;;;;;;11.83;3.53;;;;;;;;;;5012252;28;20822;-44
2022/02/18 00:08:04;;;;;;;12.53;3.87;;;;;;;;;;5012214;28;20889;-44
2022/02/18 00:10:30;;;;;;;7.73;3.20;;;;;;;;;;5012294;28;20404;-44
2022/02/18 00:12:56;;;;;;;11.47;4.53;;;;;;;;;;5012447;28;20412;-44
2022/02/18 00:15:22;;;;;;;10.90;3.37;;;;;;;;;;5011829;28;20485;-44
2022/02/18 00:17:48;;;;;;;10.60;3.77;;;;;;;;;;5011921;28;21036;-45
2022/02/18 00:20:14;;;;;;;18.87;4.87;;;;;;;;;;5011748;28;20405;-44
2022/02/18 00:22:40;;;;;;;7.50;3.53;;;;;;;;;;5011721;28;20483;-44
2022/02/18 00:25:08;;;;;;;9.93;3.87;;;;;;;;;;5011543;28;20413;-45
2022/02/18 00:27:35;;;;;;;14.32;3.83;;;;;;;;;;5011822;28;21046;-44
2022/02/18 00:30:01;;;;;;;16.50;3.80;;;;;;;;;;5010996;28;20175;-44
2022/02/18 00:32:27;;;;;;;8.45;3.50;;;;;;;;;;5011608;28;20401;-44
2022/02/18 00:34:53;;;;;;;14.33;4.60;;;;;;;;;;5011562;28;20228;-45
2022/02/18 00:37:20;;;;;;;6.70;3.60;;;;;;;;;;5011378;28;20969;-44
2022/02/18 00:39:46;;;;;;;7.67;4.10;;;;;;;;;;5011288;28;20741;-44
2022/02/18 00:42:13;;;;;;;24.27;4.83;;;;;;;;;;5011652;28;20470;-44
2022/02/18 00:44:39;;;;;;;19.30;4.40;;;;;;;;;;5011631;28;20496;-44
2022/02/18 00:47:05;;;;;;;12.97;3.63;;;;;;;;;;5011241;28;20423;-44
2022/02/18 00:49:31;;;;;;;10.30;3.25;;;;;;;;;;5011111;28;20408;-45
2022/02/18 00:51:57;;;;;;;10.77;4.23;;;;;;;;;;5011692;28;20185;-45
2022/02/18 00:54:23;;;;;;;11.60;3.80;;;;;;;;;;5011124;28;20963;-45
2022/02/18 00:56:55;;;;;;;15.17;3.90;;;;;;;;;;5011344;28;20199;-49
2022/02/18 00:59:21;;;;;;;18.03;4.90;;;;;;;;;;5011139;28;20543;-45
2022/02/18 01:01:48;;;;;;;16.63;3.97;;;;;;;;;;5011164;28;20440;-44
2022/02/18 01:04:14;;;;;;;17.90;4.43;;;;;;;;;;5011630;28;20488;-44
2022/02/18 01:06:40;;;;;;;8.37;3.73;;;;;;;;;;5010368;28;20519;-45
2022/02/18 01:09:07;;;;;;;13.97;4.40;;;;;;;;;;5010890;28;20415;-45
2022/02/18 01:11:33;;;;;;;17.70;4.40;;;;;;;;;;5015076;28;20453;-44
2022/02/18 01:13:59;;;;;;;9.27;3.80;;;;;;;;;;5017901;28;20405;-44
2022/02/18 01:16:27;;;;;;;22.37;5.30;;;;;;;;;;5017804;28;20891;-44
2022/02/18 01:18:53;;;;;;;7.83;3.57;;;;;;;;;;5017323;28;20400;-44
2022/02/18 01:21:19;;;;;;;17.60;5.37;;;;;;;;;;5017647;28;20404;-44
2022/02/18 01:23:45;;;;;;;18.47;4.43;;;;;;;;;;5017616;28;20427;-44
2022/02/18 01:26:11;;;;;;;9.60;3.40;;;;;;;;;;5017872;28;20515;-44
2022/02/18 01:28:37;;;;;;;12.43;4.10;;;;;;;;;;5017531;28;20532;-44
2022/02/18 01:31:03;;;;;;;6.20;3.67;;;;;;;;;;5017361;28;20420;-44
2022/02/18 01:33:29;;;;;;;14.00;3.73;;;;;;;;;;5017436;28;20407;-44
2022/02/18 01:35:55;;;;;;;22.03;4.30;;;;;;;;;;5017495;28;20487;-44
2022/02/18 01:38:21;;;;;;;17.07;5.47;;;;;;;;;;5017491;28;20908;-44
2022/02/18 01:40:47;;;;;;;11.40;4.90;;;;;;;;;;5017194;28;20403;-44
2022/02/18 01:43:13;;;;;;;8.40;2.90;;;;;;;;;;5017392;28;20995;-44
2022/02/18 01:45:39;;;;;;;18.43;3.57;;;;;;;;;;5017267;28;20409;-44
2022/02/18 01:48:05;;;;;;;13.00;4.03;;;;;;;;;;5017361;28;20828;-45
2022/02/18 01:50:31;;;;;;;18.90;3.53;;;;;;;;;;5017180;28;20404;-44
2022/02/18 01:52:57;;;;;;;8.13;3.20;;;;;;;;;;5017317;28;20408;-44
2022/02/18 01:55:24;;;;;;;16.23;4.47;;;;;;;;;;5017165;28;20456;-44
2022/02/18 01:57:52;;;;;;;12.60;4.50;;;;;;;;;;5017260;28;20467;-44
2022/02/18 02:00:22;;;;;;;15.57;3.57;;;;;;;;;;5017036;28;20408;-45
2022/02/18 02:02:48;;;;;;;10.77;4.60;;;;;;;;;;5017029;28;20415;-44
2022/02/18 02:05:14;;;;;;;9.37;3.80;;;;;;;;;;5017673;28;20435;-44
2022/02/18 02:07:41;;;;;;;10.83;4.13;;;;;;;;;;5017003;28;20928;-44
2022/02/18 02:10:08;;;;;;;9.70;3.50;;;;;;;;;;5017067;28;20891;-44
2022/02/18 02:12:41;;;;;;;19.42;3.40;;;;;;;;;;5017267;28;20481;-44
2022/02/18 02:15:08;;;;;;;21.63;3.67;;;;;;;;;;5017106;28;20196;-44
2022/02/18 02:17:34;;;;;;;11.50;2.90;;;;;;;;;;5017105;28;20943;-45
2022/02/18 02:20:00;;;;;;;17.03;3.33;;;;;;;;;;5017142;28;20414;-44
2022/02/18 02:22:27;;;;;;;11.63;2.70;;;;;;;;;;5014919;28;20396;-45
2022/02/18 02:24:53;;;;;;;10.80;3.47;;;;;;;;;;5014429;28;21109;-44
2022/02/18 02:27:22;;;;;;;18.27;4.13;;;;;;;;;;5014044;28;21066;-44
2022/02/18 02:29:48;;;;;;;12.13;4.30;;;;;;;;;;5013843;28;20415;-44
2022/02/18 02:32:14;;;;;;;15.03;3.67;;;;;;;;;;5013858;28;20401;-44
2022/02/18 02:34:40;;;;;;;14.60;3.50;;;;;;;;;;5013801;28;21025;-44
2022/02/18 02:37:06;;;;;;;13.53;3.63;;;;;;;;;;5013613;28;20416;-44
2022/02/18 02:39:33;;;;;;;29.20;4.63;;;;;;;;;;5013563;28;20393;-44
2022/02/18 02:42:03;;;;;;;13.57;3.47;;;;;;;;;;5013768;28;20886;-44
2022/02/18 02:44:29;;;;;;;11.10;3.50;;;;;;;;;;5013942;28;20415;-44
2022/02/18 02:46:55;;;;;;;8.10;3.57;;;;;;;;;;5013476;28;20519;-45
2022/02/18 02:49:21;;;;;;;20.57;3.57;;;;;;;;;;5013254;28;20974;-45
2022/02/18 02:51:47;;;;;;;16.57;3.50;;;;;;;;;;5013579;28;20466;-44
2022/02/18 02:54:14;;;;;;;15.60;4.20;;;;;;;;;;5013325;28;20419;-44
2022/02/18 02:56:40;;;;;;;8.07;3.03;;;;;;;;;;5013287;28;20439;-45
2022/02/18 02:59:06;;;;;;;13.40;5.50;;;;;;;;;;5013427;28;20497;-44
2022/02/18 03:01:32;;;;;;;17.03;3.73;;;;;;;;;;5013273;28;20407;-44
2022/02/18 03:03:58;;;;;;;12.03;3.50;;;;;;;;;;5013118;28;20397;-45
2022/02/18 03:06:24;;;;;;;15.97;3.77;;;;;;;;;;5013307;28;20441;-45
2022/02/18 03:08:50;;;;;;;18.30;4.03;;;;;;;;;;5013288;28;20464;-45
2022/02/18 03:11:16;;;;;;;15.60;4.07;;;;;;;;;;5013088;28;20413;-45
2022/02/18 03:13:50;;;;;;;14.33;3.20;;;;;;;;;;5013065;28;20410;-45
2022/02/18 03:16:17;;;;;;;21.83;4.73;;;;;;;;;;5012836;28;20456;-44
2022/02/18 03:18:43;;;;;;;9.60;3.20;;;;;;;;;;5012899;28;20897;-44
2022/02/18 03:21:11;;;;;;;14.03;3.40;;;;;;;;;;5012757;28;20401;-44
2022/02/18 03:23:37;;;;;;;17.23;3.63;;;;;;;;;;5012881;28;20404;-45
2022/02/18 03:26:03;;;;;;;18.73;4.10;;;;;;;;;;5012859;28;20419;-44
2022/02/18 03:28:29;;;;;;;19.77;3.97;;;;;;;;;;5012248;28;20408;-44
2022/02/18 03:30:56;;;;;;;19.67;5.60;;;;;;;;;;5012576;28;20401;-44
2022/02/18 03:33:22;;;;;;;10.70;3.33;;;;;;;;;;5012460;28;20838;-44
2022/02/18 03:35:48;;;;;;;20.17;5.17;;;;;;;;;;5012521;28;20464;-44
2022/02/18 03:38:14;;;;;;;19.67;5.30;;;;;;;;;;5012593;28;20413;-44
2022/02/18 03:40:41;;;;;;;16.80;3.60;;;;;;;;;;5012525;28;20437;-44
2022/02/18 03:43:08;;;;;;;12.23;2.73;;;;;;;;;;5012529;28;20405;-44
2022/02/18 03:45:34;;;;;;;15.03;3.60;;;;;;;;;;5012402;28;20436;-45
2022/02/18 03:48:00;;;;;;;15.40;3.50;;;;;;;;;;5012559;28;20444;-44
2022/02/18 03:50:26;;;;;;;22.53;3.83;;;;;;;;;;5012416;28;20413;-44
2022/02/18 03:52:53;;;;;;;21.77;4.30;;;;;;;;;;5012504;28;20421;-44
2022/02/18 03:55:19;;;;;;;16.20;3.40;;;;;;;;;;5012300;28;20542;-44
2022/02/18 03:57:45;;;;;;;12.30;3.27;;;;;;;;;;5012129;28;20463;-44
2022/02/18 04:00:11;;;;;;;15.53;3.97;;;;;;;;;;5011890;28;20402;-45
2022/02/18 04:02:38;;;;;;;11.70;5.37;;;;;;;;;;5010899;28;20416;-44
2022/02/18 04:05:04;;;;;;;16.93;3.83;;;;;;;;;;5012169;28;20420;-45
2022/02/18 04:07:30;;;;;;;11.33;5.03;;;;;;;;;;5012028;28;20424;-44
2022/02/18 04:09:56;;;;;;;18.60;3.70;;;;;;;;;;5011877;28;20406;-45
2022/02/18 04:12:22;;;;;;;28.23;4.00;;;;;;;;;;5011920;28;20414;-44
2022/02/18 04:14:48;;;;;;;28.20;4.10;;;;;;;;;;5011760;28;20452;-44
2022/02/18 04:17:14;;;;;;;13.80;3.77;;;;;;;;;;5011907;28;20809;-44
2022/02/18 04:19:40;;;;;;;13.83;3.23;;;;;;;;;;5011767;28;20400;-44
2022/02/18 04:22:06;;;;;;;20.30;4.40;;;;;;;;;;5011864;28;20861;-45
2022/02/18 04:24:33;;;;;;;24.30;4.13;;;;;;;;;;5012370;28;20408;-44
2022/02/18 04:26:59;;;;;;;16.37;4.20;;;;;;;;;;5011710;28;20435;-45
2022/02/18 04:29:25;;;;;;;22.47;4.30;;;;;;;;;;5011531;28;20436;-44
2022/02/18 04:31:51;;;;;;;19.63;4.00;;;;;;;;;;5011817;28;20401;-44
2022/02/18 04:34:17;;;;;;;29.10;4.63;;;;;;;;;;5012063;28;20409;-45
2022/02/18 04:36:43;;;;;;;12.33;4.37;;;;;;;;;;5011745;28;20421;-45
2022/02/18 04:39:09;;;;;;;18.70;3.20;;;;;;;;;;5011510;28;20407;-44
2022/02/18 04:41:37;;;;;;;16.73;3.47;;;;;;;;;;5011603;28;20554;-44
2022/02/18 04:44:04;;;;;;;22.63;4.47;;;;;;;;;;5011429;28;20404;-44
2022/02/18 04:46:29;;;;;;;18.03;3.77;;;;;;;;;;5010740;28;20912;-45
2022/02/18 04:48:55;;;;;;;13.90;4.10;;;;;;;;;;5011196;28;20408;-44
2022/02/18 04:51:22;;;;;;;14.37;3.57;;;;;;;;;;5011594;28;20418;-44
2022/02/18 04:53:48;;;;;;;12.07;3.00;;;;;;;;;;5011356;28;20495;-44
2022/02/18 04:56:13;;;;;;;17.07;3.57;;;;;;;;;;5011035;28;20559;-44
2022/02/18 04:58:39;;;;;;;10.60;3.80;;;;;;;;;;5011246;28;20462;-44
2022/02/18 05:01:06;;;;;;;11.80;3.83;;;;;;;;;;5011363;28;20393;-44
2022/02/18 05:03:32;;;;;;;20.23;4.43;;;;;;;;;;5011281;28;20447;-44
2022/02/18 05:05:58;;;;;;;22.73;4.90;;;;;;;;;;5011174;28;20432;-44
2022/02/18 05:08:24;;;;;;;17.67;3.80;;;;;;;;;;5011217;28;20462;-44
2022/02/18 05:10:50;;;;;;;15.90;4.30;;;;;;;;;;5010947;28;20773;-45
2022/02/18 05:13:16;;;;;;;18.93;3.80;;;;;;;;;;5011014;28;20494;-44
2022/02/18 05:15:42;;;;;;;13.67;3.53;;;;;;;;;;5010986;28;20544;-44
2022/02/18 05:18:08;;;;;;;16.10;3.57;;;;;;;;;;5011125;28;20496;-44
2022/02/18 05:20:34;;;;;;;15.90;3.33;;;;;;;;;;5010943;28;20459;-44
2022/02/18 05:23:00;;;;;;;18.43;3.80;;;;;;;;;;5011023;28;20494;-44
2022/02/18 05:25:26;;;;;;;11.70;4.20;;;;;;;;;;5010988;28;20409;-45
2022/02/18 05:27:52;;;;;;;17.00;3.43;;;;;;;;;;5010900;28;20566;-44
2022/02/18 05:30:19;;;;;;;21.80;2.97;;;;;;;;;;5010885;28;20411;-45
2022/02/18 05:32:45;;;;;;;12.33;3.73;;;;;;;;;;5010999;28;20413;-44
2022/02/18 05:35:11;;;;;;;13.83;4.00;;;;;;;;;;5010956;28;20459;-45
2022/02/18 05:37:37;;;;;;;24.80;4.20;;;;;;;;;;5011020;28;20419;-44
2022/02/18 05:40:04;;;;;;;9.33;3.37;;;;;;;;;;5011266;28;20404;-44
2022/02/18 05:42:30;;;;;;;11.93;3.30;;;;;;;;;;5010828;28;20461;-44
2022/02/18 05:44:56;;;;;;;12.80;3.97;;;;;;;;;;5011023;28;20414;-44
2022/02/18 05:47:22;;;;;;;10.30;3.40;;;;;;;;;;5010913;28;20475;-44
2022/02/18 05:49:48;;;;;;;13.97;3.73;;;;;;;;;;5011350;28;20442;-44
2022/02/18 05:52:14;;;;;;;20.00;3.90;;;;;;;;;;5011047;28;20783;-45
2022/02/18 05:54:41;;;;;;;16.20;3.60;;;;;;;;;;5010920;28;20514;-44
2022/02/18 05:57:07;;;;;;;8.40;2.90;;;;;;;;;;5011818;28;20435;-44
2022/02/18 05:59:33;;;;;;;10.80;3.57;;;;;;;;;;5014312;28;20404;-44
2022/02/18 06:01:59;;;;;;;14.20;3.10;;;;;;;;;;5014456;28;20405;-44
2022/02/18 06:04:25;;;;;;;13.13;2.90;;;;;;;;;;5014571;28;20483;-44
2022/02/18 06:06:51;;;;;;;7.07;2.93;;;;;;;;;;5014363;28;20486;-45
2022/02/18 06:09:17;;;;;;;13.63;3.67;;;;;;;;;;5014050;28;20409;-44
2022/02/18 06:11:43;;;;;;;17.80;4.03;;;;;;;;;;5014212;28;20405;-45
2022/02/18 06:14:09;;;;;;;6.10;2.63;;;;;;;;;;5014127;28;20448;-45
2022/02/18 06:16:35;;;;;;;17.87;3.50;;;;;;;;;;5014104;28;20425;-45
2022/02/18 06:19:07;;;;;;;10.60;2.83;;;;;;;;;;5013939;28;20900;-44
2022/02/18 06:21:34;;;;;;;10.80;2.97;;;;;;;;;;5014183;28;20444;-45
2022/02/18 06:24:00;;;;;;;8.90;2.60;;;;;;;;;;5014391;28;20402;-45
2022/02/18 06:26:26;;;;;;;14.63;2.70;;;;;;;;;;5013893;28;20420;-44
2022/02/18 06:28:52;;;;;;;7.47;2.63;;;;;;;;;;5013766;28;20448;-45
2022/02/18 06:31:18;;;;;;;10.73;3.10;;;;;;;;;;5013915;28;20717;-44
2022/02/18 06:33:48;;;;;;;19.17;3.40;;;;;;;;;;5013860;28;20420;-44
2022/02/18 06:36:14;;;;;;;9.60;3.37;;;;;;;;;;5013674;28;20491;-45
2022/02/18 06:38:42;;;;;;;14.13;3.00;;;;;;;;;;5013639;28;20431;-44
2022/02/18 06:41:08;;;;;;;14.07;3.57;;;;;;;;;;5013630;28;20396;-44
2022/02/18 06:43:34;;;;;;;14.25;3.10;;;;;;;;;;5013609;28;20404;-44
2022/02/18 06:46:00;;;;;;;7.57;3.70;;;;;;;;;;5013877;28;20185;-44
2022/02/18 06:48:26;;;;;;;12.63;3.10;;;;;;;;;;5013598;28;20399;-44
2022/02/18 06:50:52;;;;;;;18.60;3.30;;;;;;;;;;5013401;28;20411;-44
2022/02/18 06:53:18;;;;;;;10.40;3.10;;;;;;;;;;5013369;28;20506;-44
2022/02/18 06:55:44;;;;;;;15.97;3.30;;;;;;;;;;5013214;28;20468;-44
2022/02/18 06:58:10;;;;;;;11.33;2.60;;;;;;;;;;5014225;28;20956;-44
2022/02/18 07:00:36;;;;;;;16.37;3.70;;;;;;;;;;5014088;28;20396;-44
2022/02/18 07:03:03;;;;;;;11.83;3.27;;;;;;;;;;5013561;28;20414;-44
2022/02/18 07:05:29;;;;;;;13.93;4.00;;;;;;;;;;5013539;28;20734;-44
2022/02/18 07:07:55;;;;;;;18.27;3.37;;;;;;;;;;5013165;28;20427;-44
2022/02/18 07:10:21;;;;;;;12.00;4.20;;;;;;;;;;5012540;28;20900;-44
2022/02/18 07:12:47;;;;;;;10.77;3.57;;;;;;;;;;5013074;28;20415;-43
2022/02/18 07:15:13;;;;;;;10.57;3.67;;;;;;;;;;5013020;28;20514;-44
2022/02/18 07:17:39;;;;;;;13.57;3.23;;;;;;;;;;5012960;28;20790;-45
2022/02/18 07:20:08;;;;;;;12.07;3.87;;;;;;;;;;5012810;28;20873;-44
2022/02/18 07:22:36;;;;;;;17.30;3.40;;;;;;;;;;5011512;28;20408;-44
2022/02/18 07:25:03;;;;;;;16.15;2.92;;;;;;;;;;5013183;28;20408;-45
2022/02/18 07:27:28;;;;;;;12.90;3.60;;;;;;;;;;5012841;28;20200;-44
2022/02/18 07:29:54;;;;;;;13.20;5.03;;;;;;;;;;5012715;28;20169;-44
2022/02/18 07:32:24;;;;;;;16.13;3.63;;;;;;;;;;5012742;28;20981;-44
2022/02/18 07:34:50;;;;;;;12.07;3.72;;;;;;;;;;5013057;28;20451;-44
2022/02/18 07:37:16;;;;;;;7.70;3.10;;;;;;;;;;5012723;28;20192;-44
2022/02/18 07:39:42;;;;;;;18.77;4.10;;;;;;;;;;5012291;28;20443;-44
2022/02/18 07:42:09;;;;;;;9.80;3.60;;;;;;;;;;5012571;28;20458;-44
2022/02/18 07:44:35;;;;;;;21.50;4.50;;;;;;;;;;5012632;28;20818;-44
2022/02/18 07:47:01;;;;;;;12.40;2.90;;;;;;;;;;5012466;28;20420;-44
2022/02/18 07:49:27;;;;;;;9.45;3.30;;;;;;;;;;5012133;28;20399;-44
2022/02/18 07:51:53;;;;;;;16.03;3.70;;;;;;;;;;5011087;28;20259;-44
2022/02/18 07:54:19;;;;;;;15.00;3.93;;;;;;;;;;5012416;28;20411;-44
2022/02/18 07:56:45;;;;;;;17.60;4.03;;;;;;;;;;5012162;28;20490;-44
2022/02/18 07:59:11;;;;;;;15.67;4.00;;;;;;;;;;5012064;28;20400;-44
2022/02/18 08:01:37;;;;;;;11.23;3.67;;;;;;;;;;5012439;28;20906;-44
2022/02/18 08:04:04;;;;;;;18.13;3.70;;;;;;;;;;5012272;28;20401;-44
2022/02/18 08:06:30;;;;;;;17.63;4.73;;;;;;;;;;5012484;28;20422;-44
2022/02/18 08:08:56;;;;;;;15.23;5.13;;;;;;;;;;5011982;28;20451;-44
2022/02/18 08:11:22;;;;;;;27.07;4.40;;;;;;;;;;5012266;28;20448;-44
2022/02/18 08:13:48;;;;;;;18.43;3.43;;;;;;;;;;5011973;28;20411;-44
2022/02/18 08:16:14;;;;;;;8.67;3.00;;;;;;;;;;5011833;28;20461;-44
2022/02/18 08:18:44;;;;;;;5.70;3.30;;;;;;;;;;5011817;28;20409;-44
2022/02/18 08:21:11;;;;;;;11.10;3.10;;;;;;;;;;5010799;28;20627;-44
2022/02/18 08:23:37;;;;;;;10.83;3.47;;;;;;;;;;5011749;28;20402;-44
2022/02/18 08:26:03;;;;;;;8.70;3.20;;;;;;;;;;5011757;28;20510;-44
2022/02/18 08:28:29;;;;;;;9.90;2.93;;;;;;;;;;5011811;28;20446;-44
2022/02/18 08:30:55;;;;;;;19.37;3.07;;;;;;;;;;5011505;28;20452;-44
2022/02/18 08:33:20;;;;;;;13.43;4.10;;;;;;;;;;5011525;28;20468;-44
2022/02/18 08:35:46;;;;;;;10.13;2.90;;;;;;;;;;5011433;28;20457;-44
2022/02/18 08:38:13;;;;;;;9.03;3.20;;;;;;;;;;5011647;28;20401;-44
2022/02/18 08:40:39;;;;;;;16.97;3.90;;;;;;;;;;5011622;28;20796;-44
2022/02/18 08:43:06;;;;;;;15.83;3.33;;;;;;;;;;5011567;28;21005;-44
2022/02/18 08:45:32;;;;;;;4.53;2.10;;;;;;;;;;5012445;28;20415;-44
2022/02/18 08:47:58;;;;;;;13.27;3.10;;;;;;;;;;5011127;28;20446;-44
2022/02/18 08:50:24;;;;;;;15.20;2.97;;;;;;;;;;5011168;28;20409;-44
2022/02/18 08:52:50;;;;;;;13.00;3.60;;;;;;;;;;5011214;28;20874;-44
2022/02/18 08:55:16;;;;;;;7.30;3.00;;;;;;;;;;5011242;28;20462;-44
2022/02/18 08:57:46;;;;;;;9.93;3.10;;;;;;;;;;5011057;28;20446;-44
2022/02/18 09:00:12;;;;;;;14.17;3.90;;;;;;;;;;5011148;28;20490;-44
2022/02/18 09:02:39;;;;;;;11.30;3.33;;;;;;;;;;5011208;28;20410;-44
2022/02/18 09:05:05;;;;;;;9.70;2.57;;;;;;;;;;5011372;28;20414;-44
2022/02/18 09:07:32;;;;;;;11.97;3.37;;;;;;;;;;5011475;28;20774;-44
2022/02/18 09:09:58;;;;;;;21.37;3.10;;;;;;;;;;5010747;28;20900;-44
2022/02/18 09:12:24;;;;;;;14.00;3.37;;;;;;;;;;5010054;28;20410;-44
2022/02/18 09:14:50;;;;;;;10.53;3.00;;;;;;;;;;5010172;28;20456;-44
2022/02/18 09:17:16;;;;;;;12.93;2.70;;;;;;;;;;5011036;28;20906;-45
2022/02/18 09:19:42;;;;;;;15.50;2.80;;;;;;;;;;5010597;28;20403;-44
2022/02/18 09:22:07;;;;;;;12.33;3.83;;;;;;;;;;5010812;28;20433;-44
2022/02/18 09:24:33;;;;;;;16.00;3.10;;;;;;;;;;5011013;28;20483;-44
2022/02/18 09:26:59;;;;;;;11.40;3.07;;;;;;;;;;5010984;28;20439;-45
2022/02/18 09:29:28;;;;;;;15.27;5.03;;;;;;;;;;5010951;28;20528;-45
2022/02/18 09:31:55;;;;;;;12.00;3.40;;;;;;;;;;5011754;28;20416;-44
2022/02/18 09:34:26;;;;;;;9.43;3.40;;;;;;;;;;5015001;28;20412;-44
2022/02/18 09:36:52;;;;;;;7.80;2.53;;;;;;;;;;5015006;28;20437;-44
2022/02/18 09:39:18;;;;;;;9.57;2.67;;;;;;;;;;5014904;28;20892;-45
2022/02/18 09:41:44;;;;;;;5.53;3.43;;;;;;;;;;5014787;28;20405;-44
2022/02/18 09:44:14;;;;;;;10.40;3.73;;;;;;;;;;5014849;28;20803;-44
2022/02/18 09:46:40;;;;;;;7.90;2.50;;;;;;;;;;5014754;28;20506;-45
2022/02/18 09:49:06;;;;;;;16.33;3.20;;;;;;;;;;5014417;28;20405;-44
2022/02/18 09:51:33;;;;;;;8.80;2.50;;;;;;;;;;5014699;28;20406;-44
2022/02/18 09:53:59;;;;;;;9.07;2.93;;;;;;;;;;5014594;28;20873;-44
2022/02/18 09:56:26;;;;;;;5.93;2.03;;;;;;;;;;5013044;28;20480;-44
2022/02/18 09:58:54;;;;;;;6.00;2.20;;;;;;;;;;5014404;28;20416;-44
2022/02/18 10:01:21;;;;;;;9.03;3.70;;;;;;;;;;5014565;28;20411;-44
2022/02/18 10:03:47;;;;;;;4.47;1.90;;;;;;;;;;5014167;28;20435;-44
2022/02/18 10:06:13;;;;;;;6.30;2.10;;;;;;;;;;5014605;28;20458;-44
2022/02/18 10:08:48;;;;;;;3.43;2.03;;;;;;;;;;5014495;28;20436;-44
2022/02/18 10:11:14;;;;;;;5.37;1.60;;;;;;;;;;5014626;28;20406;-44
2022/02/18 10:13:42;;;;;;;7.57;2.30;;;;;;;;;;5014555;28;20408;-44
2022/02/18 10:16:12;;;;;;;10.00;1.70;;;;;;;;;;5014072;28;20908;-44
2022/02/18 10:18:53;;;;;;;5.90;2.17;;;;;;;;;;5014438;28;20405;-44
2022/02/18 10:21:19;;;;;;;7.47;2.13;;;;;;;;;;5014255;28;20481;-44
2022/02/18 10:23:45;;;;;;;2.60;1.63;;;;;;;;;;5014084;28;20711;-44
2022/02/18 10:26:11;;;;;;;6.20;2.20;;;;;;;;;;5014077;28;21175;-45
2022/02/18 10:28:37;;;;;;;11.37;1.87;;;;;;;;;;5013931;28;20440;-44
2022/02/18 10:31:04;;;;;;;3.30;1.87;;;;;;;;;;5013818;28;20407;-44
2022/02/18 10:33:30;;;;;;;8.50;2.60;;;;;;;;;;5013866;28;20718;-44
2022/02/18 10:36:03;;;;;;;3.13;1.70;;;;;;;;;;5013671;28;20557;-45
2022/02/18 10:38:39;;;;;;;5.90;1.93;;;;;;;;;;5013958;28;20414;-45
2022/02/18 10:41:24;;;;;;;7.33;1.47;;;;;;;;;;5013630;28;20409;-45
2022/02/18 10:43:51;;;;;;;8.53;1.90;;;;;;;;;;5012765;28;20415;-44
2022/02/18 10:46:17;;;;;;;3.87;1.93;;;;;;;;;;5013793;28;20828;-44
2022/02/18 10:48:51;;;;;;;7.77;2.20;;;;;;;;;;5013750;28;20412;-44
2022/02/18 10:51:24;;;;;;;4.70;2.00;;;;;;;;;;5013491;28;20858;-44
2022/02/18 10:53:51;;;;;;;4.50;1.90;;;;;;;;;;5013465;28;20402;-44
2022/02/18 10:56:19;;;;;;;2.67;2.00;;;;;;;;;;5013243;28;20513;-45
2022/02/18 10:58:49;;;;;;;2.90;1.83;;;;;;;;;;5013445;28;20568;-44
2022/02/18 11:01:15;;;;;;;4.90;1.70;;;;;;;;;;5013296;28;20401;-44
2022/02/18 11:03:43;;;;;;;1.77;1.40;;;;;;;;;;5013309;28;20418;-45
2022/02/18 11:06:10;;;;;;;4.03;1.70;;;;;;;;;;5013043;28;20872;-44
2022/02/18 11:08:36;;;;;;;3.77;1.67;;;;;;;;;;5013375;28;20483;-45
2022/02/18 11:11:10;;;;;;;1.70;1.40;;;;;;;;;;5013106;28;20432;-44
2022/02/18 11:13:36;;;;;;;2.30;1.67;;;;;;;;;;5013052;28;20434;-45
2022/02/18 11:16:03;;;;;;;3.03;1.93;;;;;;;;;;5012999;28;20466;-45
2022/02/18 11:18:29;;;;;;;1.87;1.77;;;;;;;;;;5013004;28;20407;-44
2022/02/18 11:20:55;;;;;;;6.13;2.03;;;;;;;;;;5012624;28;20478;-45
2022/02/18 11:23:21;;;;;;;1.50;1.40;;;;;;;;;;5013136;28;20450;-44
2022/02/18 11:25:47;;;;;;;4.60;1.70;;;;;;;;;;5012976;28;20811;-44
2022/02/18 11:28:13;;;;;;;1.40;1.30;;;;;;;;;;5013353;28;20801;-45
2022/02/18 11:30:44;;;;;;;3.67;1.60;;;;;;;;;;5012925;28;20422;-45
2022/02/18 11:33:29;;;;;;;3.37;1.53;;;;;;;;;;5013281;28;20410;-44
2022/02/18 11:35:58;;;;;;;3.93;1.60;;;;;;;;;;5012776;28;21105;-45
2022/02/18 11:38:24;;;;;;;2.50;1.77;;;;;;;;;;5013174;28;20907;-44
2022/02/18 11:41:06;;;;;;;2.87;1.73;;;;;;;;;;5012456;28;20410;-45
2022/02/18 11:43:43;;;;;;;1.67;1.40;;;;;;;;;;5013732;28;20846;-45
2022/02/18 11:46:11;;;;;;;3.57;1.30;;;;;;;;;;5011627;28;20427;-46
2022/02/18 11:48:45;;;;;;;3.73;1.80;;;;;;;;;;5012819;28;20450;-45
2022/02/18 11:51:16;;;;;;;2.90;1.70;;;;;;;;;;5012685;28;20502;-45
2022/02/18 11:53:49;;;;;;;2.60;1.50;;;;;;;;;;5011328;28;21073;-45
2022/02/18 11:56:17;;;;;;;1.40;1.27;;;;;;;;;;5011833;28;20474;-45
2022/02/18 11:58:50;;;;;;;4.63;1.73;;;;;;;;;;5013090;28;20483;-45
2022/02/18 12:01:16;;;;;;;1.43;1.33;;;;;;;;;;5012428;28;20470;-45
2022/02/18 12:04:02;;;;;;;6.17;1.67;;;;;;;;;;5012068;28;20889;-45
2022/02/18 12:06:30;;;;;;;3.17;1.40;;;;;;;;;;5011743;28;20466;-45
2022/02/18 12:08:57;;;;;;;4.03;1.30;;;;;;;;;;5012008;28;20410;-45
2022/02/18 12:11:23;;;;;;;1.90;1.30;;;;;;;;;;5012316;28;20431;-45
2022/02/18 12:13:52;;;;;;;2.73;1.37;;;;;;;;;;5011926;28;20442;-45
2022/02/18 12:16:18;;;;;;;1.60;1.50;;;;;;;;;;5011839;28;20459;-45
2022/02/18 12:19:00;;;;;;;1.53;1.20;;;;;;;;;;5012182;28;20446;-45
2022/02/18 12:21:26;;;;;;;1.47;1.37;;;;;;;;;;5011819;28;20399;-45
2022/02/18 12:23:52;;;;;;;1.47;1.37;;;;;;;;;;5011786;28;20994;-45
2022/02/18 12:26:19;;;;;;;1.03;0.93;;;;;;;;;;5011520;28;20493;-45
2022/02/18 12:28:45;;;;;;;1.10;1.00;;;;;;;;;;5011659;28;20414;-45
2022/02/18 12:31:11;;;;;;;1.40;1.30;;;;;;;;;;5011601;28;20419;-45
2022/02/18 12:33:38;;;;;;;6.93;1.67;;;;;;;;;;5011618;28;20413;-45
2022/02/18 12:36:07;;;;;;;2.90;1.40;;;;;;;;;;5011426;28;20550;-45
2022/02/18 12:38:33;;;;;;;1.00;0.90;;;;;;;;;;5011869;28;20487;-45
2022/02/18 12:41:03;;;;;;;1.97;1.20;;;;;;;;;;5011242;28;20832;-45
2022/02/18 12:43:29;;;;;;;1.40;1.30;;;;;;;;;;5011861;28;20930;-45
2022/02/18 12:46:02;;;;;;;2.70;1.67;;;;;;;;;;5011405;28;20395;-45
2022/02/18 12:48:31;;;;;;;3.37;1.60;;;;;;;;;;5011414;28;20411;-45
2022/02/18 12:50:59;;;;;;;1.57;1.00;;;;;;;;;;5011181;28;20422;-45
2022/02/18 12:53:25;;;;;;;1.43;1.33;;;;;;;;;;5011096;28;20430;-45
2022/02/18 12:55:51;;;;;;;2.50;1.40;;;;;;;;;;5010814;28;20455;-45
2022/02/18 12:58:17;;;;;;;1.30;1.20;;;;;;;;;;5012822;28;20463;-46
2022/02/18 13:00:43;;;;;;;3.17;1.30;;;;;;;;;;5012948;28;20404;-46
2022/02/18 13:03:11;;;;;;;1.20;1.10;;;;;;;;;;5012668;28;20418;-46
2022/02/18 13:05:38;;;;;;;2.63;1.27;;;;;;;;;;5013015;28;20409;-46
2022/02/18 13:08:04;;;;;;;1.40;1.30;;;;;;;;;;5013335;28;20411;-46
2022/02/18 13:10:32;;;;;;;1.40;1.30;;;;;;;;;;5013074;28;20414;-46
2022/02/18 13:12:59;;;;;;;1.13;1.03;;;;;;;;;;5012201;28;20417;-46
2022/02/18 13:15:31;;;;;;;1.40;1.30;;;;;;;;;;5011965;28;20485;-46
2022/02/18 13:17:58;;;;;;;1.30;1.20;;;;;;;;;;5012554;28;20433;-47
2022/02/18 13:20:40;;;;;;;2.20;1.30;;;;;;;;;;5012119;28;20888;-46
2022/02/18 13:23:08;;;;;;;3.37;1.13;;;;;;;;;;5012385;28;20442;-46
2022/02/18 13:25:43;;;;;;;1.57;1.23;;;;;;;;;;5012743;28;20400;-46
2022/02/18 13:28:10;;;;;;;1.10;1.00;;;;;;;;;;5012416;28;20443;-46
2022/02/18 13:30:38;;;;;;;1.20;1.10;;;;;;;;;;5011534;28;20732;-46
2022/02/18 13:33:05;;;;;;;1.30;1.10;;;;;;;;;;5011529;28;20405;-46
2022/02/18 13:35:33;;;;;;;2.30;1.33;;;;;;;;;;5011602;28;20457;-46
2022/02/18 13:37:59;;;;;;;1.10;1.00;;;;;;;;;;5011647;28;20552;-47
2022/02/18 13:40:26;;;;;;;1.10;1.00;;;;;;;;;;5011040;28;20408;-46
2022/02/18 13:42:53;;;;;;;1.20;1.10;;;;;;;;;;5011234;28;20405;-46
2022/02/18 13:45:20;;;;;;;1.33;1.00;;;;;;;;;;5013428;28;20779;-46
2022/02/18 13:47:46;;;;;;;1.10;1.00;;;;;;;;;;5012575;28;20900;-46
2022/02/18 13:50:13;;;;;;;1.00;1.00;;;;;;;;;;5012549;28;20763;-45
2022/02/18 13:52:39;;;;;;;1.40;1.10;;;;;;;;;;5012842;28;20404;-46
2022/02/18 13:55:06;;;;;;;1.10;1.00;;;;;;;;;;5012158;28;20465;-46
2022/02/18 13:57:33;;;;;;;3.00;1.03;;;;;;;;;;5012077;28;20990;-47
2022/02/18 13:59:58;;;;;;;2.30;1.17;;;;;;;;;;5011960;28;20452;-46
2022/02/18 14:02:24;;;;;;;2.80;0.90;;;;;;;;;;5011215;28;20405;-46
2022/02/18 14:04:51;;;;;;;1.27;1.00;;;;;;;;;;5011813;28;20441;-47
2022/02/18 14:07:18;;;;;;;1.07;1.00;;;;;;;;;;5011981;28;20425;-46
2022/02/18 14:09:45;;;;;;;1.37;1.27;;;;;;;;;;5011456;28;20421;-46
2022/02/18 14:12:12;;;;;;;1.37;0.90;;;;;;;;;;5011248;28;20410;-46
2022/02/18 14:14:38;;;;;;;1.10;1.00;;;;;;;;;;5010812;28;20409;-46
2022/02/18 14:17:05;;;;;;;1.10;1.00;;;;;;;;;;5011036;28;20490;-46
2022/02/18 14:19:45;;;;;;;1.13;1.03;;;;;;;;;;5014038;28;20397;-46
2022/02/18 14:22:11;;;;;;;1.10;0.90;;;;;;;;;;5017524;28;20422;-45
2022/02/18 14:24:38;;;;;;;4.77;0.90;;;;;;;;;;5018099;28;20411;-45
2022/02/18 14:27:14;;;;;;;1.67;1.07;;;;;;;;;;5017159;28;20508;-45
2022/02/18 14:29:52;;;;;;;1.10;0.97;;;;;;;;;;5018530;28;20405;-46
2022/02/18 14:32:25;;;;;;;3.93;1.00;;;;;;;;;;5019688;28;20868;-46
2022/02/18 14:34:57;;;;;;;4.23;2.27;;;;;;;;;;5017494;28;20457;-46